sensor_id;sensor_type;location;lat;lon;timestamp;P1;P2;P0
45700;PMS5003;36277;32.852;-116.998;2023-02-01T00:02:04;1.60;1.60;1.00
45700;PMS5003;36277;32.852;-116.998;2023-02-01T00:04:30;1.80;1.80;1.00
45700;PMS5003;36277;32.852;-116.998;2023-02-01T00:06:57;1.20;1.20;1.00
45700;PMS5003;36277;32.852;-116.998;2023-02-01T00:09:23;1.00;1.00;1.00
45700;PMS5003;36277;32.852;-116.998;2023-02-01T00:11:49;1.00;1.00;1.00
45700;PMS5003;36277;32.852;-116.998;2023-02-01T00:14:15;1.40;1.40;1.20
45700;PMS5003;36277;32.852;-116.998;2023-02-01T00:16:42;3.00;3.00;2.00
45700;PMS5003;36277;32.852;-116.998;2023-02-01T00:19:12;1.60;1.60;1.20
45700;PMS5003;36277;32.852;-116.998;2023-02-01T00:21:40;0.00;0.00;0.00
45700;PMS5003;36277;32.852;-116.998;2023-02-01T00:24:08;2.00;2.00;1.00
45700;PMS5003;36277;32.852;-116.998;2023-02-01T00:26:43;1.80;1.80;1.00
45700;PMS5003;36277;32.852;-116.998;2023-02-01T00:29:12;1.80;1.80;1.40
45700;PMS5003;36277;32.852;-116.998;2023-02-01T00:31:41;1.00;1.00;1.00
45700;PMS5003;36277;32.852;-116.998;2023-02-01T00:34:09;1.00;1.00;1.00
45700;PMS5003;36277;32.852;-116.998;2023-02-01T00:36:38;0.80;0.80;0.80
45700;PMS5003;36277;32.852;-116.998;2023-02-01T00:39:05;1.40;1.40;1.20
45700;PMS5003;36277;32.852;-116.998;2023-02-01T00:41:31;1.00;1.00;1.00
45700;PMS5003;36277;32.852;-116.998;2023-02-01T00:43:58;1.00;1.00;0.80
45700;PMS5003;36277;32.852;-116.998;2023-02-01T00:46:24;1.20;1.20;0.80
45700;PMS5003;36277;32.852;-116.998;2023-02-01T00:48:50;1.00;1.00;1.00
45700;PMS5003;36277;32.852;-116.998;2023-02-01T00:51:18;0.60;0.60;0.20
45700;PMS5003;36277;32.852;-116.998;2023-02-01T00:53:47;0.00;0.00;0.00
45700;PMS5003;36277;32.852;-116.998;2023-02-01T00:56:13;1.80;1.80;1.00
45700;PMS5003;36277;32.852;-116.998;2023-02-01T00:58:40;0.80;0.80;0.40
45700;PMS5003;36277;32.852;-116.998;2023-02-01T01:01:14;1.00;1.00;1.00
45700;PMS5003;36277;32.852;-116.998;2023-02-01T01:03:43;1.00;1.00;0.00
45700;PMS5003;36277;32.852;-116.998;2023-02-01T01:06:16;0.80;0.80;0.80
45700;PMS5003;36277;32.852;-116.998;2023-02-01T01:08:46;0.00;0.00;0.00
45700;PMS5003;36277;32.852;-116.998;2023-02-01T01:11:16;1.00;1.00;1.00
45700;PMS5003;36277;32.852;-116.998;2023-02-01T01:13:48;0.80;0.80;0.00
45700;PMS5003;36277;32.852;-116.998;2023-02-01T01:16:15;0.00;0.00;0.00
45700;PMS5003;36277;32.852;-116.998;2023-02-01T01:18:43;0.20;0.20;0.20
45700;PMS5003;36277;32.852;-116.998;2023-02-01T01:21:11;0.00;0.00;0.00
45700;PMS5003;36277;32.852;-116.998;2023-02-01T01:23:39;0.00;0.00;0.00
45700;PMS5003;36277;32.852;-116.998;2023-02-01T01:26:10;1.00;1.00;1.00
45700;PMS5003;36277;32.852;-116.998;2023-02-01T01:28:41;1.20;1.20;1.00
45700;PMS5003;36277;32.852;-116.998;2023-02-01T01:31:09;0.00;0.00;0.00
45700;PMS5003;36277;32.852;-116.998;2023-02-01T01:33:36;0.00;0.00;0.00
45700;PMS5003;36277;32.852;-116.998;2023-02-01T01:36:06;0.00;0.00;0.00
45700;PMS5003;36277;32.852;-116.998;2023-02-01T01:38:36;0.00;0.00;0.00
45700;PMS5003;36277;32.852;-116.998;2023-02-01T01:41:04;0.80;0.80;0.80
45700;PMS5003;36277;32.852;-116.998;2023-02-01T01:43:51;0.40;0.40;0.00
45700;PMS5003;36277;32.852;-116.998;2023-02-01T01:46:38;0.00;0.00;0.00
45700;PMS5003;36277;32.852;-116.998;2023-02-01T01:49:19;0.60;0.60;0.60
45700;PMS5003;36277;32.852;-116.998;2023-02-01T01:51:51;1.00;1.00;1.00
45700;PMS5003;36277;32.852;-116.998;2023-02-01T01:54:23;1.00;1.00;1.00
45700;PMS5003;36277;32.852;-116.998;2023-02-01T01:57:00;1.00;1.00;0.40
45700;PMS5003;36277;32.852;-116.998;2023-02-01T01:59:49;0.80;0.80;0.80
45700;PMS5003;36277;32.852;-116.998;2023-02-01T02:02:20;0.60;0.60;0.20
45700;PMS5003;36277;32.852;-116.998;2023-02-01T02:04:47;1.00;1.00;0.40
45700;PMS5003;36277;32.852;-116.998;2023-02-01T02:07:36;0.40;0.40;0.00
45700;PMS5003;36277;32.852;-116.998;2023-02-01T02:10:03;0.00;0.00;0.00
45700;PMS5003;36277;32.852;-116.998;2023-02-01T02:12:31;0.40;0.40;0.00
45700;PMS5003;36277;32.852;-116.998;2023-02-01T02:14:58;1.00;1.00;1.00
45700;PMS5003;36277;32.852;-116.998;2023-02-01T02:39:18;1.00;1.00;0.80
45700;PMS5003;36277;32.852;-116.998;2023-02-01T02:41:50;0.80;0.80;0.80
45700;PMS5003;36277;32.852;-116.998;2023-02-01T02:50:24;1.00;1.00;1.00
45700;PMS5003;36277;32.852;-116.998;2023-02-01T02:53:27;2.00;2.00;1.00
45700;PMS5003;36277;32.852;-116.998;2023-02-01T02:56:18;0.40;0.40;0.40
45700;PMS5003;36277;32.852;-116.998;2023-02-01T02:59:07;1.00;1.00;1.00
45700;PMS5003;36277;32.852;-116.998;2023-02-01T03:01:55;1.00;1.00;1.00
45700;PMS5003;36277;32.852;-116.998;2023-02-01T03:04:40;3.00;3.00;2.00
45700;PMS5003;36277;32.852;-116.998;2023-02-01T03:07:14;2.60;2.60;2.40
45700;PMS5003;36277;32.852;-116.998;2023-02-01T03:10:05;2.00;2.00;2.00
45700;PMS5003;36277;32.852;-116.998;2023-02-01T03:12:37;2.00;2.00;1.60
45700;PMS5003;36277;32.852;-116.998;2023-02-01T03:15:27;2.00;2.00;2.00
45700;PMS5003;36277;32.852;-116.998;2023-02-01T03:18:02;1.60;1.60;1.60
45700;PMS5003;36277;32.852;-116.998;2023-02-01T03:20:38;2.60;2.60;2.00
45700;PMS5003;36277;32.852;-116.998;2023-02-01T03:23:09;2.40;2.40;2.00
45700;PMS5003;36277;32.852;-116.998;2023-02-01T03:25:39;1.60;1.60;1.60
45700;PMS5003;36277;32.852;-116.998;2023-02-01T03:28:07;2.00;2.00;1.40
45700;PMS5003;36277;32.852;-116.998;2023-02-01T03:30:41;2.00;2.00;1.60
45700;PMS5003;36277;32.852;-116.998;2023-02-01T03:33:09;2.00;2.00;2.00
45700;PMS5003;36277;32.852;-116.998;2023-02-01T03:38:38;1.00;1.00;1.00
45700;PMS5003;36277;32.852;-116.998;2023-02-01T03:41:15;2.00;2.00;2.00
45700;PMS5003;36277;32.852;-116.998;2023-02-01T03:46:45;1.00;1.00;1.00
45700;PMS5003;36277;32.852;-116.998;2023-02-01T03:49:39;1.40;1.40;1.40
45700;PMS5003;36277;32.852;-116.998;2023-02-01T03:52:14;2.00;2.00;2.00
45700;PMS5003;36277;32.852;-116.998;2023-02-01T03:54:48;1.20;1.20;1.00
45700;PMS5003;36277;32.852;-116.998;2023-02-01T03:57:16;1.80;1.80;1.40
45700;PMS5003;36277;32.852;-116.998;2023-02-01T03:59:49;1.00;1.00;1.00
45700;PMS5003;36277;32.852;-116.998;2023-02-01T04:02:16;1.20;1.20;1.20
45700;PMS5003;36277;32.852;-116.998;2023-02-01T04:04:42;2.00;2.00;2.00
45700;PMS5003;36277;32.852;-116.998;2023-02-01T04:07:08;3.00;3.00;2.00
45700;PMS5003;36277;32.852;-116.998;2023-02-01T04:09:35;2.00;2.00;2.00
45700;PMS5003;36277;32.852;-116.998;2023-02-01T04:12:01;2.00;2.00;2.00
45700;PMS5003;36277;32.852;-116.998;2023-02-01T04:14:27;2.20;2.20;2.00
45700;PMS5003;36277;32.852;-116.998;2023-02-01T04:16:53;3.00;3.00;2.00
45700;PMS5003;36277;32.852;-116.998;2023-02-01T04:19:20;1.00;1.00;1.00
45700;PMS5003;36277;32.852;-116.998;2023-02-01T04:21:46;1.40;1.40;1.00
45700;PMS5003;36277;32.852;-116.998;2023-02-01T04:24:12;2.40;2.40;2.20
45700;PMS5003;36277;32.852;-116.998;2023-02-01T04:26:38;2.00;2.00;1.60
45700;PMS5003;36277;32.852;-116.998;2023-02-01T04:29:04;2.00;2.00;2.00
45700;PMS5003;36277;32.852;-116.998;2023-02-01T04:31:31;2.20;2.20;2.00
45700;PMS5003;36277;32.852;-116.998;2023-02-01T04:33:57;2.00;2.00;2.00
45700;PMS5003;36277;32.852;-116.998;2023-02-01T04:36:23;0.80;0.80;0.60
45700;PMS5003;36277;32.852;-116.998;2023-02-01T04:38:50;1.40;1.40;1.40
45700;PMS5003;36277;32.852;-116.998;2023-02-01T04:41:17;2.00;2.00;2.00
45700;PMS5003;36277;32.852;-116.998;2023-02-01T04:43:48;2.00;2.00;1.80
45700;PMS5003;36277;32.852;-116.998;2023-02-01T04:46:16;2.00;2.00;2.00
45700;PMS5003;36277;32.852;-116.998;2023-02-01T04:48:42;2.00;2.00;1.00
45700;PMS5003;36277;32.852;-116.998;2023-02-01T04:51:08;1.00;1.00;1.00
45700;PMS5003;36277;32.852;-116.998;2023-02-01T04:53:35;2.60;2.60;2.00
45700;PMS5003;36277;32.852;-116.998;2023-02-01T04:56:01;2.00;2.00;2.00
45700;PMS5003;36277;32.852;-116.998;2023-02-01T04:58:27;1.40;1.40;1.00
45700;PMS5003;36277;32.852;-116.998;2023-02-01T05:00:54;1.00;1.00;1.00
45700;PMS5003;36277;32.852;-116.998;2023-02-01T05:03:20;2.00;2.00;2.00
45700;PMS5003;36277;32.852;-116.998;2023-02-01T05:05:49;2.60;2.60;1.80
45700;PMS5003;36277;32.852;-116.998;2023-02-01T05:08:17;2.00;2.00;2.00
45700;PMS5003;36277;32.852;-116.998;2023-02-01T05:10:44;2.00;2.00;1.80
45700;PMS5003;36277;32.852;-116.998;2023-02-01T05:13:10;1.00;1.00;1.00
45700;PMS5003;36277;32.852;-116.998;2023-02-01T05:15:55;3.60;3.60;3.00
45700;PMS5003;36277;32.852;-116.998;2023-02-01T05:18:21;2.40;2.40;2.00
45700;PMS5003;36277;32.852;-116.998;2023-02-01T05:20:47;3.00;3.00;2.00
45700;PMS5003;36277;32.852;-116.998;2023-02-01T05:23:14;3.00;3.00;2.00
45700;PMS5003;36277;32.852;-116.998;2023-02-01T05:25:40;3.00;3.00;2.00
45700;PMS5003;36277;32.852;-116.998;2023-02-01T05:28:06;4.00;4.00;3.60
45700;PMS5003;36277;32.852;-116.998;2023-02-01T05:30:32;4.20;4.20;4.00
45700;PMS5003;36277;32.852;-116.998;2023-02-01T05:33:00;3.80;3.80;3.00
45700;PMS5003;36277;32.852;-116.998;2023-02-01T05:35:27;3.20;3.20;3.00
45700;PMS5003;36277;32.852;-116.998;2023-02-01T05:37:53;3.60;3.60;3.20
45700;PMS5003;36277;32.852;-116.998;2023-02-01T05:40:19;5.00;5.00;4.20
45700;PMS5003;36277;32.852;-116.998;2023-02-01T05:42:46;4.00;4.00;3.00
45700;PMS5003;36277;32.852;-116.998;2023-02-01T05:45:12;3.80;3.80;3.40
45700;PMS5003;36277;32.852;-116.998;2023-02-01T05:47:38;3.00;3.00;3.00
45700;PMS5003;36277;32.852;-116.998;2023-02-01T05:50:05;2.60;2.60;2.40
45700;PMS5003;36277;32.852;-116.998;2023-02-01T05:52:32;1.00;1.00;0.60
45700;PMS5003;36277;32.852;-116.998;2023-02-01T05:54:58;4.00;4.00;3.00
45700;PMS5003;36277;32.852;-116.998;2023-02-01T05:57:25;4.00;4.00;3.60
45700;PMS5003;36277;32.852;-116.998;2023-02-01T05:59:51;2.00;2.00;2.00
45700;PMS5003;36277;32.852;-116.998;2023-02-01T06:02:17;2.40;2.40;2.20
45700;PMS5003;36277;32.852;-116.998;2023-02-01T06:04:43;3.00;3.00;3.00
45700;PMS5003;36277;32.852;-116.998;2023-02-01T06:07:10;4.60;4.60;3.80
45700;PMS5003;36277;32.852;-116.998;2023-02-01T06:09:36;3.00;3.00;3.00
45700;PMS5003;36277;32.852;-116.998;2023-02-01T06:12:03;3.00;3.00;3.00
45700;PMS5003;36277;32.852;-116.998;2023-02-01T06:14:30;3.20;3.20;3.00
45700;PMS5003;36277;32.852;-116.998;2023-02-01T06:16:56;2.40;2.40;2.40
45700;PMS5003;36277;32.852;-116.998;2023-02-01T06:19:22;2.20;2.20;2.00
45700;PMS5003;36277;32.852;-116.998;2023-02-01T06:21:49;2.40;2.40;2.20
45700;PMS5003;36277;32.852;-116.998;2023-02-01T06:24:15;1.60;1.60;1.00
45700;PMS5003;36277;32.852;-116.998;2023-02-01T06:26:41;4.00;4.00;4.00
45700;PMS5003;36277;32.852;-116.998;2023-02-01T06:29:11;1.60;1.60;1.60
45700;PMS5003;36277;32.852;-116.998;2023-02-01T06:31:38;3.80;3.80;3.00
45700;PMS5003;36277;32.852;-116.998;2023-02-01T06:34:05;2.00;2.00;2.00
45700;PMS5003;36277;32.852;-116.998;2023-02-01T06:36:31;4.00;4.00;4.00
45700;PMS5003;36277;32.852;-116.998;2023-02-01T06:38:57;3.80;3.80;3.00
45700;PMS5003;36277;32.852;-116.998;2023-02-01T06:41:25;3.00;3.00;3.00
45700;PMS5003;36277;32.852;-116.998;2023-02-01T06:43:52;2.60;2.60;2.20
45700;PMS5003;36277;32.852;-116.998;2023-02-01T06:46:18;3.00;2.80;2.80
45700;PMS5003;36277;32.852;-116.998;2023-02-01T06:48:44;2.00;2.00;2.00
45700;PMS5003;36277;32.852;-116.998;2023-02-01T06:51:27;3.00;3.00;2.20
45700;PMS5003;36277;32.852;-116.998;2023-02-01T06:53:54;3.00;3.00;3.00
45700;PMS5003;36277;32.852;-116.998;2023-02-01T06:56:21;4.00;4.00;3.20
45700;PMS5003;36277;32.852;-116.998;2023-02-01T06:58:47;3.00;3.00;3.00
45700;PMS5003;36277;32.852;-116.998;2023-02-01T07:01:14;3.40;3.40;3.00
45700;PMS5003;36277;32.852;-116.998;2023-02-01T07:03:41;3.20;3.20;3.00
45700;PMS5003;36277;32.852;-116.998;2023-02-01T07:06:08;2.00;2.00;2.00
45700;PMS5003;36277;32.852;-116.998;2023-02-01T07:08:36;2.00;2.00;2.00
45700;PMS5003;36277;32.852;-116.998;2023-02-01T07:11:03;4.00;4.00;3.00
45700;PMS5003;36277;32.852;-116.998;2023-02-01T07:13:35;3.00;3.00;2.60
45700;PMS5003;36277;32.852;-116.998;2023-02-01T07:16:01;3.00;3.00;2.60
45700;PMS5003;36277;32.852;-116.998;2023-02-01T07:18:29;0.20;0.20;0.20
45700;PMS5003;36277;32.852;-116.998;2023-02-01T07:20:57;3.00;3.00;2.60
45700;PMS5003;36277;32.852;-116.998;2023-02-01T07:23:24;2.00;2.00;2.00
45700;PMS5003;36277;32.852;-116.998;2023-02-01T07:25:57;3.60;3.60;3.00
45700;PMS5003;36277;32.852;-116.998;2023-02-01T07:28:25;3.60;3.60;3.00
45700;PMS5003;36277;32.852;-116.998;2023-02-01T07:30:53;2.40;2.40;2.00
45700;PMS5003;36277;32.852;-116.998;2023-02-01T07:33:21;2.00;2.00;2.00
45700;PMS5003;36277;32.852;-116.998;2023-02-01T07:35:48;2.00;2.00;2.00
45700;PMS5003;36277;32.852;-116.998;2023-02-01T07:38:16;2.00;2.00;2.00
45700;PMS5003;36277;32.852;-116.998;2023-02-01T07:40:43;1.00;1.00;1.00
45700;PMS5003;36277;32.852;-116.998;2023-02-01T07:43:09;3.00;3.00;3.00
45700;PMS5003;36277;32.852;-116.998;2023-02-01T07:45:36;1.80;1.80;1.00
45700;PMS5003;36277;32.852;-116.998;2023-02-01T07:48:03;2.00;2.00;2.00
45700;PMS5003;36277;32.852;-116.998;2023-02-01T07:50:29;2.00;2.00;2.00
45700;PMS5003;36277;32.852;-116.998;2023-02-01T07:52:58;3.00;3.00;2.00
45700;PMS5003;36277;32.852;-116.998;2023-02-01T07:55:26;3.00;3.00;2.40
45700;PMS5003;36277;32.852;-116.998;2023-02-01T07:57:52;2.60;2.60;2.20
45700;PMS5003;36277;32.852;-116.998;2023-02-01T08:00:21;2.00;2.00;2.00
45700;PMS5003;36277;32.852;-116.998;2023-02-01T08:03:06;2.40;2.40;2.00
45700;PMS5003;36277;32.852;-116.998;2023-02-01T08:05:32;3.60;3.60;3.40
45700;PMS5003;36277;32.852;-116.998;2023-02-01T08:07:59;3.00;3.00;3.00
45700;PMS5003;36277;32.852;-116.998;2023-02-01T08:10:25;2.20;2.20;2.00
45700;PMS5003;36277;32.852;-116.998;2023-02-01T08:12:51;2.00;2.00;2.00
45700;PMS5003;36277;32.852;-116.998;2023-02-01T08:15:23;2.80;2.80;2.80
45700;PMS5003;36277;32.852;-116.998;2023-02-01T08:17:49;2.60;2.60;2.00
45700;PMS5003;36277;32.852;-116.998;2023-02-01T08:20:21;2.00;2.00;2.00
45700;PMS5003;36277;32.852;-116.998;2023-02-01T08:22:53;2.00;2.00;2.00
45700;PMS5003;36277;32.852;-116.998;2023-02-01T08:25:24;3.00;3.00;2.00
45700;PMS5003;36277;32.852;-116.998;2023-02-01T08:27:55;3.80;3.80;3.00
45700;PMS5003;36277;32.852;-116.998;2023-02-01T08:30:26;1.20;1.20;0.60
45700;PMS5003;36277;32.852;-116.998;2023-02-01T08:32:57;3.00;3.00;3.00
45700;PMS5003;36277;32.852;-116.998;2023-02-01T08:35:26;3.00;3.00;2.60
45700;PMS5003;36277;32.852;-116.998;2023-02-01T08:37:53;2.20;2.20;2.00
45700;PMS5003;36277;32.852;-116.998;2023-02-01T08:40:19;2.75;2.75;2.50
45700;PMS5003;36277;32.852;-116.998;2023-02-01T08:42:47;2.00;2.00;2.00
45700;PMS5003;36277;32.852;-116.998;2023-02-01T08:45:19;2.00;2.00;2.00
45700;PMS5003;36277;32.852;-116.998;2023-02-01T08:47:52;3.00;3.00;3.00
45700;PMS5003;36277;32.852;-116.998;2023-02-01T08:50:18;3.00;3.00;3.00
45700;PMS5003;36277;32.852;-116.998;2023-02-01T08:52:46;2.60;2.60;2.00
45700;PMS5003;36277;32.852;-116.998;2023-02-01T08:55:13;2.00;2.00;2.00
45700;PMS5003;36277;32.852;-116.998;2023-02-01T08:57:40;2.20;2.20;2.00
45700;PMS5003;36277;32.852;-116.998;2023-02-01T09:00:08;1.00;1.00;1.00
45700;PMS5003;36277;32.852;-116.998;2023-02-01T09:02:37;2.00;2.00;2.00
45700;PMS5003;36277;32.852;-116.998;2023-02-01T09:05:03;2.00;2.00;2.00
45700;PMS5003;36277;32.852;-116.998;2023-02-01T09:07:30;2.00;2.00;1.00
45700;PMS5003;36277;32.852;-116.998;2023-02-01T09:09:57;2.00;2.00;2.00
45700;PMS5003;36277;32.852;-116.998;2023-02-01T09:12:27;1.00;1.00;1.00
45700;PMS5003;36277;32.852;-116.998;2023-02-01T09:14:55;1.00;1.00;1.00
45700;PMS5003;36277;32.852;-116.998;2023-02-01T09:17:22;2.00;2.00;2.00
45700;PMS5003;36277;32.852;-116.998;2023-02-01T09:19:48;2.00;2.00;2.00
45700;PMS5003;36277;32.852;-116.998;2023-02-01T09:22:15;1.20;1.20;1.00
45700;PMS5003;36277;32.852;-116.998;2023-02-01T09:24:41;1.00;1.00;1.00
45700;PMS5003;36277;32.852;-116.998;2023-02-01T09:27:07;1.00;1.00;1.00
45700;PMS5003;36277;32.852;-116.998;2023-02-01T09:29:34;3.00;3.00;3.00
45700;PMS5003;36277;32.852;-116.998;2023-02-01T09:32:00;2.00;2.00;1.60
45700;PMS5003;36277;32.852;-116.998;2023-02-01T09:34:27;2.00;2.00;1.00
45700;PMS5003;36277;32.852;-116.998;2023-02-01T09:36:53;1.80;1.80;1.40
45700;PMS5003;36277;32.852;-116.998;2023-02-01T09:39:19;2.00;2.00;2.00
45700;PMS5003;36277;32.852;-116.998;2023-02-01T09:47:00;2.00;2.00;2.00
45700;PMS5003;36277;32.852;-116.998;2023-02-01T09:49:34;2.00;2.00;2.00
45700;PMS5003;36277;32.852;-116.998;2023-02-01T09:52:07;1.25;1.25;1.00
45700;PMS5003;36277;32.852;-116.998;2023-02-01T09:54:47;1.00;1.00;1.00
45700;PMS5003;36277;32.852;-116.998;2023-02-01T09:57:24;1.40;1.40;1.00
45700;PMS5003;36277;32.852;-116.998;2023-02-01T09:59:59;2.00;2.00;1.80
45700;PMS5003;36277;32.852;-116.998;2023-02-01T10:02:40;1.00;1.00;1.00
45700;PMS5003;36277;32.852;-116.998;2023-02-01T10:05:12;1.25;1.25;1.00
45700;PMS5003;36277;32.852;-116.998;2023-02-01T10:07:46;2.00;2.00;1.00
45700;PMS5003;36277;32.852;-116.998;2023-02-01T10:10:39;1.40;1.40;1.20
45700;PMS5003;36277;32.852;-116.998;2023-02-01T10:15:52;2.00;2.00;2.00
45700;PMS5003;36277;32.852;-116.998;2023-02-01T10:18:36;1.50;1.50;1.50
45700;PMS5003;36277;32.852;-116.998;2023-02-01T10:26:25;1.00;1.00;1.00
45700;PMS5003;36277;32.852;-116.998;2023-02-01T10:28:58;1.00;1.00;1.00
45700;PMS5003;36277;32.852;-116.998;2023-02-01T10:31:28;1.25;1.25;1.00
45700;PMS5003;36277;32.852;-116.998;2023-02-01T10:33:58;1.00;1.00;1.00
45700;PMS5003;36277;32.852;-116.998;2023-02-01T10:36:33;1.50;1.50;1.25
45700;PMS5003;36277;32.852;-116.998;2023-02-01T10:39:05;0.50;0.50;0.50
45700;PMS5003;36277;32.852;-116.998;2023-02-01T10:41:38;1.75;1.75;1.00
45700;PMS5003;36277;32.852;-116.998;2023-02-01T10:44:16;1.00;1.00;0.80
45700;PMS5003;36277;32.852;-116.998;2023-02-01T10:46:48;0.00;0.00;0.00
45700;PMS5003;36277;32.852;-116.998;2023-02-01T10:49:20;1.00;1.00;1.00
45700;PMS5003;36277;32.852;-116.998;2023-02-01T10:54:34;1.25;1.25;0.50
45700;PMS5003;36277;32.852;-116.998;2023-02-01T10:57:06;1.50;1.50;1.50
45700;PMS5003;36277;32.852;-116.998;2023-02-01T10:59:35;0.20;0.20;0.20
45700;PMS5003;36277;32.852;-116.998;2023-02-01T11:02:18;1.00;1.00;1.00
45700;PMS5003;36277;32.852;-116.998;2023-02-01T11:05:04;2.00;2.00;1.50
45700;PMS5003;36277;32.852;-116.998;2023-02-01T11:07:38;1.00;1.00;1.00
45700;PMS5003;36277;32.852;-116.998;2023-02-01T11:10:58;1.25;1.25;1.00
45700;PMS5003;36277;32.852;-116.998;2023-02-01T11:13:02;2.00;2.00;1.00
45700;PMS5003;36277;32.852;-116.998;2023-02-01T11:15:30;2.00;2.00;1.75
45700;PMS5003;36277;32.852;-116.998;2023-02-01T11:17:56;1.00;1.00;1.00
45700;PMS5003;36277;32.852;-116.998;2023-02-01T11:20:41;0.75;0.75;0.75
45700;PMS5003;36277;32.852;-116.998;2023-02-01T11:23:15;1.00;1.00;1.00
45700;PMS5003;36277;32.852;-116.998;2023-02-01T11:25:53;1.00;1.00;1.00
45700;PMS5003;36277;32.852;-116.998;2023-02-01T11:28:23;1.00;1.00;1.00
45700;PMS5003;36277;32.852;-116.998;2023-02-01T11:30:56;1.50;1.50;1.25
45700;PMS5003;36277;32.852;-116.998;2023-02-01T11:33:29;1.00;1.00;1.00
45700;PMS5003;36277;32.852;-116.998;2023-02-01T11:36:01;1.00;1.00;1.00
45700;PMS5003;36277;32.852;-116.998;2023-02-01T11:38:34;1.50;1.50;1.00
45700;PMS5003;36277;32.852;-116.998;2023-02-01T11:41:14;1.00;1.00;1.00
45700;PMS5003;36277;32.852;-116.998;2023-02-01T11:43:52;1.00;1.00;0.75
45700;PMS5003;36277;32.852;-116.998;2023-02-01T11:46:24;1.00;1.00;1.00
45700;PMS5003;36277;32.852;-116.998;2023-02-01T11:48:55;0.50;0.50;0.50
45700;PMS5003;36277;32.852;-116.998;2023-02-01T12:06:31;0.00;0.00;0.00
45700;PMS5003;36277;32.852;-116.998;2023-02-01T12:09:20;0.25;0.25;0.00
45700;PMS5003;36277;32.852;-116.998;2023-02-01T12:11:55;0.00;0.00;0.00
45700;PMS5003;36277;32.852;-116.998;2023-02-01T12:17:42;0.00;0.00;0.00
45700;PMS5003;36277;32.852;-116.998;2023-02-01T12:23:03;0.00;0.00;0.00
45700;PMS5003;36277;32.852;-116.998;2023-02-01T12:25:55;0.00;0.00;0.00
45700;PMS5003;36277;32.852;-116.998;2023-02-01T12:28:39;0.75;0.75;0.75
45700;PMS5003;36277;32.852;-116.998;2023-02-01T12:31:27;0.00;0.00;0.00
45700;PMS5003;36277;32.852;-116.998;2023-02-01T12:36:55;0.00;0.00;0.00
45700;PMS5003;36277;32.852;-116.998;2023-02-01T12:39:45;0.00;0.00;0.00
45700;PMS5003;36277;32.852;-116.998;2023-02-01T12:42:16;0.00;0.00;0.00
45700;PMS5003;36277;32.852;-116.998;2023-02-01T12:47:49;0.50;0.50;0.50
45700;PMS5003;36277;32.852;-116.998;2023-02-01T12:50:24;1.00;1.00;0.00
45700;PMS5003;36277;32.852;-116.998;2023-02-01T12:52:52;0.00;0.00;0.00
45700;PMS5003;36277;32.852;-116.998;2023-02-01T12:55:34;0.00;0.00;0.00
45700;PMS5003;36277;32.852;-116.998;2023-02-01T12:58:15;0.00;0.00;0.00
45700;PMS5003;36277;32.852;-116.998;2023-02-01T13:01:02;0.00;0.00;0.00
45700;PMS5003;36277;32.852;-116.998;2023-02-01T13:06:26;0.00;0.00;0.00
45700;PMS5003;36277;32.852;-116.998;2023-02-01T13:09:03;0.00;0.00;0.00
45700;PMS5003;36277;32.852;-116.998;2023-02-01T13:11:31;1.00;1.00;1.00
45700;PMS5003;36277;32.852;-116.998;2023-02-01T13:16:47;0.00;0.00;0.00
45700;PMS5003;36277;32.852;-116.998;2023-02-01T13:21:55;0.50;0.50;0.50
45700;PMS5003;36277;32.852;-116.998;2023-02-01T13:24:35;0.00;0.00;0.00
45700;PMS5003;36277;32.852;-116.998;2023-02-01T13:27:11;1.00;1.00;0.00
45700;PMS5003;36277;32.852;-116.998;2023-02-01T13:30:42;1.00;1.00;1.00
45700;PMS5003;36277;32.852;-116.998;2023-02-01T13:40:52;0.00;0.00;0.00
45700;PMS5003;36277;32.852;-116.998;2023-02-01T13:43:27;0.00;0.00;0.00
45700;PMS5003;36277;32.852;-116.998;2023-02-01T13:45:57;1.00;1.00;0.00
45700;PMS5003;36277;32.852;-116.998;2023-02-01T13:48:47;0.50;0.50;0.50
45700;PMS5003;36277;32.852;-116.998;2023-02-01T13:51:41;0.25;0.25;0.25
45700;PMS5003;36277;32.852;-116.998;2023-02-01T13:54:25;0.00;0.00;0.00
45700;PMS5003;36277;32.852;-116.998;2023-02-01T13:56:51;0.00;0.00;0.00
45700;PMS5003;36277;32.852;-116.998;2023-02-01T13:59:48;0.00;0.00;0.00
45700;PMS5003;36277;32.852;-116.998;2023-02-01T14:05:06;0.00;0.00;0.00
45700;PMS5003;36277;32.852;-116.998;2023-02-01T14:07:36;0.00;0.00;0.00
45700;PMS5003;36277;32.852;-116.998;2023-02-01T14:13:30;0.00;0.00;0.00
45700;PMS5003;36277;32.852;-116.998;2023-02-01T14:23:41;0.00;0.00;0.00
45700;PMS5003;36277;32.852;-116.998;2023-02-01T14:26:11;0.00;0.00;0.00
45700;PMS5003;36277;32.852;-116.998;2023-02-01T14:28:44;0.00;0.00;0.00
45700;PMS5003;36277;32.852;-116.998;2023-02-01T14:31:35;0.00;0.00;0.00
45700;PMS5003;36277;32.852;-116.998;2023-02-01T14:34:16;1.00;1.00;0.80
45700;PMS5003;36277;32.852;-116.998;2023-02-01T14:44:49;0.00;0.00;0.00
45700;PMS5003;36277;32.852;-116.998;2023-02-01T14:50:03;0.00;0.00;0.00
45700;PMS5003;36277;32.852;-116.998;2023-02-01T14:52:37;0.00;0.00;0.00
45700;PMS5003;36277;32.852;-116.998;2023-02-01T14:55:16;0.00;0.00;0.00
45700;PMS5003;36277;32.852;-116.998;2023-02-01T14:57:53;0.00;0.00;0.00
45700;PMS5003;36277;32.852;-116.998;2023-02-01T15:00:24;0.00;0.00;0.00
45700;PMS5003;36277;32.852;-116.998;2023-02-01T15:02:54;0.00;0.00;0.00
45700;PMS5003;36277;32.852;-116.998;2023-02-01T15:05:41;0.00;0.00;0.00
45700;PMS5003;36277;32.852;-116.998;2023-02-01T15:08:12;0.00;0.00;0.00
45700;PMS5003;36277;32.852;-116.998;2023-02-01T15:10:46;0.00;0.00;0.00
45700;PMS5003;36277;32.852;-116.998;2023-02-01T15:13:25;0.00;0.00;0.00
45700;PMS5003;36277;32.852;-116.998;2023-02-01T15:16:26;0.00;0.00;0.00
45700;PMS5003;36277;32.852;-116.998;2023-02-01T15:18:47;0.00;0.00;0.00
45700;PMS5003;36277;32.852;-116.998;2023-02-01T15:21:18;0.00;0.00;0.00
45700;PMS5003;36277;32.852;-116.998;2023-02-01T15:23:49;0.00;0.00;0.00
45700;PMS5003;36277;32.852;-116.998;2023-02-01T15:26:29;0.00;0.00;0.00
45700;PMS5003;36277;32.852;-116.998;2023-02-01T15:28:57;0.50;0.50;0.50
45700;PMS5003;36277;32.852;-116.998;2023-02-01T15:31:37;0.00;0.00;0.00
45700;PMS5003;36277;32.852;-116.998;2023-02-01T15:34:06;0.00;0.00;0.00
45700;PMS5003;36277;32.852;-116.998;2023-02-01T15:36:32;0.00;0.00;0.00
45700;PMS5003;36277;32.852;-116.998;2023-02-01T15:39:12;0.00;0.00;0.00
45700;PMS5003;36277;32.852;-116.998;2023-02-01T15:41:52;0.00;0.00;0.00
45700;PMS5003;36277;32.852;-116.998;2023-02-01T15:44:46;0.00;0.00;0.00
45700;PMS5003;36277;32.852;-116.998;2023-02-01T15:47:19;0.00;0.00;0.00
45700;PMS5003;36277;32.852;-116.998;2023-02-01T15:49:54;0.00;0.00;0.00
45700;PMS5003;36277;32.852;-116.998;2023-02-01T15:52:36;0.00;0.00;0.00
45700;PMS5003;36277;32.852;-116.998;2023-02-01T15:55:07;0.00;0.00;0.00
45700;PMS5003;36277;32.852;-116.998;2023-02-01T15:57:54;0.00;0.00;0.00
45700;PMS5003;36277;32.852;-116.998;2023-02-01T16:00:22;0.50;0.50;0.00
45700;PMS5003;36277;32.852;-116.998;2023-02-01T16:02:53;18.25;18.25;14.75
45700;PMS5003;36277;32.852;-116.998;2023-02-01T16:08:04;125.50;121.50;82.25
45700;PMS5003;36277;32.852;-116.998;2023-02-01T16:10:44;172.50;169.00;112.25